LPMA Informações do Aeroporto

Informações da Pista
Pista 05 Comprimento 9110 ft Largura 148 ft
Elevação 147 ft Limite 480 ft Heading 45
Pista 23 Comprimento 9110 ft Largura 148 ft
Elevação 192 ft Limite 490 ft Heading 225
Frequências do Aeroporto
Tipo APP Nome APP Frequência 119.2 MHZ
Tipo TWR Nome TWR Frequência 118.35 MHZ
Navaids do Aeroporto
Tipo VOR-DME Nome Madeira Frequência 112200 KHZ
Tipo NDB Nome Madeira Frequência 318 KHZ
Informações meteorológicas do aeroporto e NOTAM
ADDS - METARS form results

(2234 UTC 16 September 2021)
Data provider http://aviationweather.gov/metar/data/
 
METAR text: LPMA 162230Z 01008KT 320V050 9999 BKN015 22/17 Q1023
Conditions at: LPMA (FUNCHAL/MADEIRA , PT) observed 2230 UTC 16 September 2021
Temperature: 22.0°C (72°F)
Dewpoint: 17.0°C (63°F) [RH = 73%]
Pressure (altimeter): 30.21 inches Hg (1023.0 mb)
Winds: from the N (10 degrees) at 9 MPH (8 knots; 4.1 m/s)
Visibility: 6 or more miles (10+ km)
Ceiling: 1500 feet AGL
Clouds: broken clouds at 1500 feet AGL
Weather: no significant weather observed at this time

METAR text: LPMA 162200Z 02006KT 350V070 9999 BKN015 22/17 Q1023
Conditions at: LPMA (FUNCHAL/MADEIRA , PT) observed 2200 UTC 16 September 2021
Temperature: 22.0°C (72°F)
Dewpoint: 17.0°C (63°F) [RH = 73%]
Pressure (altimeter): 30.21 inches Hg (1023.0 mb)
Winds: from the NNE (20 degrees) at 7 MPH (6 knots; 3.1 m/s)
Visibility: 6 or more miles (10+ km)
Ceiling: 1500 feet AGL
Clouds: broken clouds at 1500 feet AGL
Weather: no significant weather observed at this time

Forecast for: LPMA (FUNCHAL/MADEIRA , PT)
Text: TAF LPMA 161700Z 1618/1718 01012KT 9999 SCT015
Forecast period: 1800 UTC 16 September 2021 to 1800 UTC 17 September 2021
Forecast type: FROM: standard forecast or significant change
Winds: from the N (10 degrees) at 14 MPH (12 knots; 6.2 m/s)
Visibility: 6 or more miles (10+ km)
Ceiling: at least 12,000 feet AGL
Clouds: scattered clouds at 1500 feet AGL
Weather: no significant weather forecast for this period
Text: TEMPO 1618/1718 01015G25KT
Forecast period: 1800 UTC 16 September 2021 to 1800 UTC 17 September 2021
Forecast type: TEMPORARY: The following changes expected for less than half the time period
Winds: from the N (10 degrees) at 17 MPH (15 knots; 7.7 m/s)
gusting to 29 MPH (25 knots; 12.9 m/s)
Visibility: missing
Ceiling: unknown
Clouds: missing
Weather: no significant weather forecast for this period
Text: PROB30
Forecast period: 1800 UTC 16 September 2021 to 1800 UTC 17 September 2021
Forecast type: TEMPORARY: The following changes expected for less than half the time period
Visibility: 5 miles (8 km)
Ceiling: 1300 feet AGL
Clouds: broken clouds at 1300 feet AGL
Weather: SHRA  (rain showers)